sensor_id;sensor_type;location;lat;lon;timestamp;pressure;altitude;pressure_sealevel;temperature;humidity
15308;BME280;7755;52.208;6.964;2024-03-25T00:03:59;100201.53;;;5.84;100.00
15308;BME280;7755;52.208;6.964;2024-03-25T00:08:34;100209.03;;;5.75;100.00
15308;BME280;7755;52.208;6.964;2024-03-25T00:13:12;100203.13;;;5.66;100.00
15308;BME280;7755;52.208;6.964;2024-03-25T00:17:47;100213.34;;;5.58;100.00
15308;BME280;7755;52.208;6.964;2024-03-25T00:22:22;100211.53;;;5.52;100.00
15308;BME280;7755;52.208;6.964;2024-03-25T00:26:57;100223.97;;;5.53;100.00
15308;BME280;7755;52.208;6.964;2024-03-25T00:31:34;100222.31;;;5.52;100.00
15308;BME280;7755;52.208;6.964;2024-03-25T00:36:10;100224.03;;;5.46;100.00
15308;BME280;7755;52.208;6.964;2024-03-25T00:40:45;100214.09;;;5.40;100.00
15308;BME280;7755;52.208;6.964;2024-03-25T00:45:20;100211.00;;;5.43;100.00
15308;BME280;7755;52.208;6.964;2024-03-25T00:49:57;100212.25;;;5.40;100.00
15308;BME280;7755;52.208;6.964;2024-03-25T00:54:33;100218.84;;;5.44;100.00
15308;BME280;7755;52.208;6.964;2024-03-25T00:59:08;100211.97;;;5.48;100.00
15308;BME280;7755;52.208;6.964;2024-03-25T01:03:43;100213.84;;;5.48;100.00
15308;BME280;7755;52.208;6.964;2024-03-25T01:08:21;100211.59;;;5.45;100.00
15308;BME280;7755;52.208;6.964;2024-03-25T01:12:49;100207.47;;;5.42;100.00
15308;BME280;7755;52.208;6.964;2024-03-25T01:17:24;100214.28;;;5.45;100.00
15308;BME280;7755;52.208;6.964;2024-03-25T01:21:59;100213.47;;;5.44;100.00
15308;BME280;7755;52.208;6.964;2024-03-25T01:26:36;100219.28;;;5.41;100.00
15308;BME280;7755;52.208;6.964;2024-03-25T01:31:12;100231.56;;;5.37;100.00
15308;BME280;7755;52.208;6.964;2024-03-25T01:35:47;100227.69;;;5.27;100.00
15308;BME280;7755;52.208;6.964;2024-03-25T01:40:22;100232.69;;;5.23;100.00
15308;BME280;7755;52.208;6.964;2024-03-25T01:44:52;100220.25;;;5.22;100.00
15308;BME280;7755;52.208;6.964;2024-03-25T01:49:28;100224.44;;;5.18;100.00
15308;BME280;7755;52.208;6.964;2024-03-25T01:54:03;100228.16;;;5.17;100.00
15308;BME280;7755;52.208;6.964;2024-03-25T01:58:39;100233.34;;;5.18;100.00
15308;BME280;7755;52.208;6.964;2024-03-25T02:03:17;100233.94;;;5.20;100.00
15308;BME280;7755;52.208;6.964;2024-03-25T02:07:53;100235.97;;;5.25;100.00
15308;BME280;7755;52.208;6.964;2024-03-25T02:12:29;100230.38;;;5.27;100.00
15308;BME280;7755;52.208;6.964;2024-03-25T02:17:04;100235.53;;;5.28;100.00
15308;BME280;7755;52.208;6.964;2024-03-25T02:21:43;100234.53;;;5.29;100.00
15308;BME280;7755;52.208;6.964;2024-03-25T02:26:20;100234.72;;;5.28;100.00
15308;BME280;7755;52.208;6.964;2024-03-25T02:30:56;100238.69;;;5.25;100.00
15308;BME280;7755;52.208;6.964;2024-03-25T02:35:31;100243.25;;;5.25;100.00
15308;BME280;7755;52.208;6.964;2024-03-25T02:40:08;100242.69;;;5.16;100.00
15308;BME280;7755;52.208;6.964;2024-03-25T02:44:45;100242.09;;;5.07;100.00
15308;BME280;7755;52.208;6.964;2024-03-25T02:49:21;100254.78;;;5.00;100.00
15308;BME280;7755;52.208;6.964;2024-03-25T02:53:56;100254.44;;;4.90;100.00
15308;BME280;7755;52.208;6.964;2024-03-25T02:58:31;100263.75;;;4.87;100.00
15308;BME280;7755;52.208;6.964;2024-03-25T03:03:08;100262.09;;;4.86;100.00
15308;BME280;7755;52.208;6.964;2024-03-25T03:07:44;100264.41;;;4.83;100.00
15308;BME280;7755;52.208;6.964;2024-03-25T03:12:19;100248.25;;;4.83;100.00
15308;BME280;7755;52.208;6.964;2024-03-25T03:16:54;100250.94;;;4.83;100.00
15308;BME280;7755;52.208;6.964;2024-03-25T03:21:32;100249.91;;;4.84;100.00
15308;BME280;7755;52.208;6.964;2024-03-25T03:26:08;100255.88;;;4.86;100.00
15308;BME280;7755;52.208;6.964;2024-03-25T03:30:43;100259.03;;;4.83;100.00
15308;BME280;7755;52.208;6.964;2024-03-25T03:35:18;100265.44;;;4.82;100.00
15308;BME280;7755;52.208;6.964;2024-03-25T03:39:55;100277.25;;;4.81;100.00
15308;BME280;7755;52.208;6.964;2024-03-25T03:44:32;100281.16;;;4.85;100.00
15308;BME280;7755;52.208;6.964;2024-03-25T03:49:07;100286.16;;;4.88;100.00
15308;BME280;7755;52.208;6.964;2024-03-25T03:53:42;100283.03;;;4.84;100.00
15308;BME280;7755;52.208;6.964;2024-03-25T03:58:20;100274.72;;;4.92;100.00
15308;BME280;7755;52.208;6.964;2024-03-25T04:02:55;100271.16;;;4.99;100.00
15308;BME280;7755;52.208;6.964;2024-03-25T04:07:31;100272.56;;;5.08;100.00
15308;BME280;7755;52.208;6.964;2024-03-25T04:12:07;100278.59;;;5.03;100.00
15308;BME280;7755;52.208;6.964;2024-03-25T04:16:37;100271.94;;;5.06;100.00
15308;BME280;7755;52.208;6.964;2024-03-25T04:21:13;100280.84;;;5.06;100.00
15308;BME280;7755;52.208;6.964;2024-03-25T04:25:48;100268.88;;;5.02;100.00
15308;BME280;7755;52.208;6.964;2024-03-25T04:30:23;100266.78;;;5.04;100.00
15308;BME280;7755;52.208;6.964;2024-03-25T04:35:01;100275.47;;;5.06;100.00
15308;BME280;7755;52.208;6.964;2024-03-25T04:39:36;100270.50;;;5.10;100.00
15308;BME280;7755;52.208;6.964;2024-03-25T04:44:12;100290.97;;;5.17;100.00
15308;BME280;7755;52.208;6.964;2024-03-25T04:48:47;100282.47;;;5.14;100.00
15308;BME280;7755;52.208;6.964;2024-03-25T04:53:24;100283.94;;;5.16;100.00
15308;BME280;7755;52.208;6.964;2024-03-25T04:58:00;100280.78;;;5.19;100.00
15308;BME280;7755;52.208;6.964;2024-03-25T05:02:35;100288.47;;;5.23;100.00
15308;BME280;7755;52.208;6.964;2024-03-25T05:07:10;100288.00;;;5.26;100.00
15308;BME280;7755;52.208;6.964;2024-03-25T05:11:48;100290.31;;;5.29;100.00
15308;BME280;7755;52.208;6.964;2024-03-25T05:16:23;100288.81;;;5.33;100.00
15308;BME280;7755;52.208;6.964;2024-03-25T05:20:58;100292.53;;;5.32;100.00
15308;BME280;7755;52.208;6.964;2024-03-25T05:25:34;100297.94;;;5.32;100.00
15308;BME280;7755;52.208;6.964;2024-03-25T05:30:13;100302.09;;;5.28;100.00
15308;BME280;7755;52.208;6.964;2024-03-25T05:34:48;100302.13;;;5.21;100.00
15308;BME280;7755;52.208;6.964;2024-03-25T05:39:23;100305.47;;;5.23;100.00
15308;BME280;7755;52.208;6.964;2024-03-25T05:43:58;100311.06;;;5.22;100.00
15308;BME280;7755;52.208;6.964;2024-03-25T05:48:35;100309.41;;;5.14;100.00
15308;BME280;7755;52.208;6.964;2024-03-25T05:53:11;100316.91;;;5.12;100.00
15308;BME280;7755;52.208;6.964;2024-03-25T05:57:46;100308.81;;;5.12;100.00
15308;BME280;7755;52.208;6.964;2024-03-25T06:02:22;100307.16;;;5.11;100.00
15308;BME280;7755;52.208;6.964;2024-03-25T06:06:59;100319.81;;;5.10;100.00
15308;BME280;7755;52.208;6.964;2024-03-25T06:11:35;100310.09;;;5.09;100.00
15308;BME280;7755;52.208;6.964;2024-03-25T06:16:10;100323.94;;;5.13;100.00
15308;BME280;7755;52.208;6.964;2024-03-25T06:20:45;100323.94;;;5.13;100.00
15308;BME280;7755;52.208;6.964;2024-03-25T06:25:22;100321.03;;;5.14;100.00
15308;BME280;7755;52.208;6.964;2024-03-25T06:29:58;100320.84;;;5.16;100.00
15308;BME280;7755;52.208;6.964;2024-03-25T06:34:48;100318.34;;;5.14;100.00
15308;BME280;7755;52.208;6.964;2024-03-25T06:39:23;100325.19;;;5.17;100.00
15308;BME280;7755;52.208;6.964;2024-03-25T06:44:00;100320.38;;;5.19;100.00
15308;BME280;7755;52.208;6.964;2024-03-25T06:48:36;100329.75;;;5.16;100.00
15308;BME280;7755;52.208;6.964;2024-03-25T06:53:11;100318.94;;;5.23;100.00
15308;BME280;7755;52.208;6.964;2024-03-25T06:57:46;100327.19;;;5.28;100.00
15308;BME280;7755;52.208;6.964;2024-03-25T07:02:23;100325.47;;;5.40;100.00
15308;BME280;7755;52.208;6.964;2024-03-25T07:06:59;100327.97;;;5.42;100.00
15308;BME280;7755;52.208;6.964;2024-03-25T07:11:34;100337.84;;;5.48;100.00
15308;BME280;7755;52.208;6.964;2024-03-25T07:16:16;100335.75;;;5.57;100.00
15308;BME280;7755;52.208;6.964;2024-03-25T07:20:53;100332.75;;;5.71;100.00
15308;BME280;7755;52.208;6.964;2024-03-25T07:25:29;100335.81;;;5.75;100.00
15308;BME280;7755;52.208;6.964;2024-03-25T07:30:05;100339.47;;;5.87;100.00
15308;BME280;7755;52.208;6.964;2024-03-25T07:34:41;100330.66;;;6.05;100.00
15308;BME280;7755;52.208;6.964;2024-03-25T07:39:18;100341.78;;;6.15;100.00
15308;BME280;7755;52.208;6.964;2024-03-25T07:43:54;100327.56;;;6.26;100.00
15308;BME280;7755;52.208;6.964;2024-03-25T07:48:29;100334.25;;;6.42;100.00
15308;BME280;7755;52.208;6.964;2024-03-25T07:53:04;100347.34;;;6.64;100.00
15308;BME280;7755;52.208;6.964;2024-03-25T07:57:41;100341.44;;;6.73;100.00
15308;BME280;7755;52.208;6.964;2024-03-25T08:02:17;100342.34;;;6.86;100.00
15308;BME280;7755;52.208;6.964;2024-03-25T08:06:52;100337.84;;;6.98;100.00
15308;BME280;7755;52.208;6.964;2024-03-25T08:11:27;100340.00;;;7.07;100.00
15308;BME280;7755;52.208;6.964;2024-03-25T08:16:05;100333.88;;;7.30;100.00
15308;BME280;7755;52.208;6.964;2024-03-25T08:20:40;100347.88;;;7.57;100.00
15308;BME280;7755;52.208;6.964;2024-03-25T08:25:15;100338.50;;;7.72;100.00
15308;BME280;7755;52.208;6.964;2024-03-25T08:29:50;100343.28;;;7.88;100.00
15308;BME280;7755;52.208;6.964;2024-03-25T08:34:27;100349.69;;;8.17;100.00
15308;BME280;7755;52.208;6.964;2024-03-25T08:39:03;100335.97;;;8.54;100.00
15308;BME280;7755;52.208;6.964;2024-03-25T08:43:38;100343.25;;;8.77;100.00
15308;BME280;7755;52.208;6.964;2024-03-25T08:48:13;100341.25;;;8.84;100.00
15308;BME280;7755;52.208;6.964;2024-03-25T08:52:50;100352.63;;;9.09;100.00
15308;BME280;7755;52.208;6.964;2024-03-25T08:57:26;100351.16;;;9.30;100.00
15308;BME280;7755;52.208;6.964;2024-03-25T09:02:01;100353.91;;;9.18;100.00
15308;BME280;7755;52.208;6.964;2024-03-25T09:06:36;100352.53;;;9.44;100.00
15308;BME280;7755;52.208;6.964;2024-03-25T09:11:13;100359.75;;;9.67;100.00
15308;BME280;7755;52.208;6.964;2024-03-25T09:15:49;100346.13;;;9.79;100.00
15308;BME280;7755;52.208;6.964;2024-03-25T09:20:24;100348.09;;;9.83;100.00
15308;BME280;7755;52.208;6.964;2024-03-25T09:24:59;100338.06;;;10.01;100.00
15308;BME280;7755;52.208;6.964;2024-03-25T09:29:37;100332.06;;;10.49;100.00
15308;BME280;7755;52.208;6.964;2024-03-25T09:34:12;100320.16;;;11.11;96.09
15308;BME280;7755;52.208;6.964;2024-03-25T09:38:47;100324.00;;;11.64;95.45
15308;BME280;7755;52.208;6.964;2024-03-25T09:43:25;100328.91;;;11.89;83.18
15308;BME280;7755;52.208;6.964;2024-03-25T09:48:04;100327.50;;;11.59;81.59
15308;BME280;7755;52.208;6.964;2024-03-25T09:52:40;100316.75;;;11.74;82.85
15308;BME280;7755;52.208;6.964;2024-03-25T09:57:15;100322.28;;;12.07;73.05
15308;BME280;7755;52.208;6.964;2024-03-25T10:01:51;100326.19;;;12.21;76.41
15308;BME280;7755;52.208;6.964;2024-03-25T10:06:28;100327.19;;;12.10;74.89
15308;BME280;7755;52.208;6.964;2024-03-25T10:11:04;100325.75;;;12.34;79.15
15308;BME280;7755;52.208;6.964;2024-03-25T10:15:39;100325.84;;;12.12;76.09
15308;BME280;7755;52.208;6.964;2024-03-25T10:20:14;100320.84;;;11.72;77.16
15308;BME280;7755;52.208;6.964;2024-03-25T10:24:51;100325.03;;;11.85;81.79
15308;BME280;7755;52.208;6.964;2024-03-25T10:29:27;100318.72;;;12.06;78.56
15308;BME280;7755;52.208;6.964;2024-03-25T10:34:02;100313.22;;;12.33;80.77
15308;BME280;7755;52.208;6.964;2024-03-25T10:38:37;100308.72;;;12.59;81.84
15308;BME280;7755;52.208;6.964;2024-03-25T10:43:16;100310.78;;;12.84;76.97
15308;BME280;7755;52.208;6.964;2024-03-25T10:47:45;100301.00;;;12.93;74.86
15308;BME280;7755;52.208;6.964;2024-03-25T10:52:20;100296.13;;;12.48;68.01
15308;BME280;7755;52.208;6.964;2024-03-25T10:56:57;100290.22;;;12.61;72.45
15308;BME280;7755;52.208;6.964;2024-03-25T11:01:36;100294.97;;;12.86;71.01
15308;BME280;7755;52.208;6.964;2024-03-25T11:06:11;100283.19;;;12.75;67.69
15308;BME280;7755;52.208;6.964;2024-03-25T11:10:47;100274.25;;;12.90;68.77
15308;BME280;7755;52.208;6.964;2024-03-25T11:15:22;100280.56;;;12.96;66.49
15308;BME280;7755;52.208;6.964;2024-03-25T11:20:09;100273.22;;;13.01;64.90
15308;BME280;7755;52.208;6.964;2024-03-25T11:24:45;100269.69;;;13.11;66.99
15308;BME280;7755;52.208;6.964;2024-03-25T11:29:20;100268.81;;;12.95;62.60
15308;BME280;7755;52.208;6.964;2024-03-25T11:33:55;100261.03;;;12.62;64.58
15308;BME280;7755;52.208;6.964;2024-03-25T11:38:32;100249.53;;;12.54;66.95
15308;BME280;7755;52.208;6.964;2024-03-25T11:43:08;100246.56;;;12.66;64.31
15308;BME280;7755;52.208;6.964;2024-03-25T11:47:43;100247.66;;;13.23;61.69
15308;BME280;7755;52.208;6.964;2024-03-25T11:52:19;100242.50;;;13.67;61.28
15308;BME280;7755;52.208;6.964;2024-03-25T11:56:56;100231.03;;;14.11;61.28
15308;BME280;7755;52.208;6.964;2024-03-25T12:01:32;100223.84;;;14.40;57.23
15308;BME280;7755;52.208;6.964;2024-03-25T12:06:07;100217.66;;;14.99;56.24
15308;BME280;7755;52.208;6.964;2024-03-25T12:10:42;100211.25;;;15.14;56.65
15308;BME280;7755;52.208;6.964;2024-03-25T12:15:34;100209.84;;;14.67;56.64
15308;BME280;7755;52.208;6.964;2024-03-25T12:20:10;100211.34;;;14.14;55.40
15308;BME280;7755;52.208;6.964;2024-03-25T12:24:48;100215.75;;;13.74;56.87
15308;BME280;7755;52.208;6.964;2024-03-25T12:29:23;100194.44;;;13.86;59.35
15308;BME280;7755;52.208;6.964;2024-03-25T12:34:00;100200.69;;;14.07;59.09
15308;BME280;7755;52.208;6.964;2024-03-25T12:38:36;100193.59;;;14.01;58.16
15308;BME280;7755;52.208;6.964;2024-03-25T12:43:13;100174.19;;;14.03;58.68
15308;BME280;7755;52.208;6.964;2024-03-25T12:47:49;100177.19;;;14.11;57.74
15308;BME280;7755;52.208;6.964;2024-03-25T12:52:20;100177.75;;;13.88;57.31
15308;BME280;7755;52.208;6.964;2024-03-25T12:56:56;100164.88;;;14.14;57.68
15308;BME280;7755;52.208;6.964;2024-03-25T13:01:31;100146.19;;;14.41;56.46
15308;BME280;7755;52.208;6.964;2024-03-25T13:06:06;100144.91;;;14.83;55.87
15308;BME280;7755;52.208;6.964;2024-03-25T13:10:43;100141.22;;;14.59;53.58
15308;BME280;7755;52.208;6.964;2024-03-25T13:15:19;100136.34;;;14.35;53.75
15308;BME280;7755;52.208;6.964;2024-03-25T13:19:54;100134.53;;;14.10;53.84
15308;BME280;7755;52.208;6.964;2024-03-25T13:24:29;100128.13;;;14.40;54.16
15308;BME280;7755;52.208;6.964;2024-03-25T13:29:06;100125.41;;;14.95;52.77
15308;BME280;7755;52.208;6.964;2024-03-25T13:33:42;100120.28;;;15.22;48.45
15308;BME280;7755;52.208;6.964;2024-03-25T13:38:17;100110.41;;;15.55;48.86
15308;BME280;7755;52.208;6.964;2024-03-25T13:42:52;100110.03;;;15.38;46.69
15308;BME280;7755;52.208;6.964;2024-03-25T13:47:29;100108.28;;;15.18;47.86
15308;BME280;7755;52.208;6.964;2024-03-25T13:52:05;100102.66;;;15.39;47.87
15308;BME280;7755;52.208;6.964;2024-03-25T13:56:40;100094.59;;;15.18;47.02
15308;BME280;7755;52.208;6.964;2024-03-25T14:01:15;100088.63;;;15.45;47.42
15308;BME280;7755;52.208;6.964;2024-03-25T14:05:52;100087.69;;;15.26;46.97
15308;BME280;7755;52.208;6.964;2024-03-25T14:10:28;100086.91;;;15.20;46.16
15308;BME280;7755;52.208;6.964;2024-03-25T14:15:04;100069.03;;;14.94;47.41
15308;BME280;7755;52.208;6.964;2024-03-25T14:19:39;100072.00;;;14.58;47.25
15308;BME280;7755;52.208;6.964;2024-03-25T14:24:16;100064.47;;;14.30;48.75
15308;BME280;7755;52.208;6.964;2024-03-25T14:28:52;100058.00;;;14.10;49.98
15308;BME280;7755;52.208;6.964;2024-03-25T14:33:27;100049.88;;;13.90;49.38
15308;BME280;7755;52.208;6.964;2024-03-25T14:38:02;100045.63;;;13.48;50.25
15308;BME280;7755;52.208;6.964;2024-03-25T14:42:40;100043.94;;;13.52;50.26
15308;BME280;7755;52.208;6.964;2024-03-25T14:47:15;100031.31;;;13.82;49.65
15308;BME280;7755;52.208;6.964;2024-03-25T14:51:50;100014.81;;;14.07;49.14
15308;BME280;7755;52.208;6.964;2024-03-25T14:56:25;100013.97;;;14.17;48.06
15308;BME280;7755;52.208;6.964;2024-03-25T15:01:03;100006.38;;;13.99;49.39
15308;BME280;7755;52.208;6.964;2024-03-25T15:05:38;100001.75;;;13.94;49.43
15308;BME280;7755;52.208;6.964;2024-03-25T15:10:13;100007.28;;;13.74;48.91
15308;BME280;7755;52.208;6.964;2024-03-25T15:14:41;100001.06;;;13.63;48.43
15308;BME280;7755;52.208;6.964;2024-03-25T15:19:18;99992.63;;;13.39;49.18
15308;BME280;7755;52.208;6.964;2024-03-25T15:23:54;99988.84;;;13.15;48.10
15308;BME280;7755;52.208;6.964;2024-03-25T15:28:29;99976.59;;;12.76;47.77
15308;BME280;7755;52.208;6.964;2024-03-25T15:33:04;99970.03;;;12.72;48.93
15308;BME280;7755;52.208;6.964;2024-03-25T15:37:41;99963.75;;;12.77;48.94
15308;BME280;7755;52.208;6.964;2024-03-25T15:42:17;99965.66;;;12.71;48.76
15308;BME280;7755;52.208;6.964;2024-03-25T15:46:52;99958.03;;;12.78;49.82
15308;BME280;7755;52.208;6.964;2024-03-25T15:51:27;99955.56;;;12.77;49.55
15308;BME280;7755;52.208;6.964;2024-03-25T15:56:05;99946.31;;;12.83;49.15
15308;BME280;7755;52.208;6.964;2024-03-25T16:00:40;99946.28;;;12.73;48.48
15308;BME280;7755;52.208;6.964;2024-03-25T16:05:15;99938.66;;;12.60;49.17
15308;BME280;7755;52.208;6.964;2024-03-25T16:09:50;99929.41;;;12.61;50.29
15308;BME280;7755;52.208;6.964;2024-03-25T16:14:32;99929.94;;;12.52;48.52
15308;BME280;7755;52.208;6.964;2024-03-25T16:19:07;99928.56;;;12.29;48.22
15308;BME280;7755;52.208;6.964;2024-03-25T16:23:42;99935.06;;;12.18;48.67
15308;BME280;7755;52.208;6.964;2024-03-25T16:28:17;99927.44;;;12.10;48.51
15308;BME280;7755;52.208;6.964;2024-03-25T16:32:54;99920.63;;;12.08;48.96
15308;BME280;7755;52.208;6.964;2024-03-25T16:37:30;99921.97;;;12.00;48.98
15308;BME280;7755;52.208;6.964;2024-03-25T16:42:05;99918.94;;;11.91;49.19
15308;BME280;7755;52.208;6.964;2024-03-25T16:46:40;99908.84;;;11.82;49.53
15308;BME280;7755;52.208;6.964;2024-03-25T16:51:17;99899.25;;;11.69;49.75
15308;BME280;7755;52.208;6.964;2024-03-25T16:55:53;99896.75;;;11.57;50.42
15308;BME280;7755;52.208;6.964;2024-03-25T17:00:28;99899.47;;;11.52;52.11
15308;BME280;7755;52.208;6.964;2024-03-25T17:04:56;99899.72;;;11.45;52.43
15308;BME280;7755;52.208;6.964;2024-03-25T17:09:33;99886.59;;;11.37;52.34
15308;BME280;7755;52.208;6.964;2024-03-25T17:14:09;99886.00;;;11.20;52.30
15308;BME280;7755;52.208;6.964;2024-03-25T17:18:44;99888.88;;;10.98;53.08
15308;BME280;7755;52.208;6.964;2024-03-25T17:23:19;99878.69;;;10.83;53.64
15308;BME280;7755;52.208;6.964;2024-03-25T17:27:57;99877.03;;;10.72;54.87
15308;BME280;7755;52.208;6.964;2024-03-25T17:32:33;99882.09;;;10.58;55.83
15308;BME280;7755;52.208;6.964;2024-03-25T17:37:08;99876.81;;;10.47;56.50
15308;BME280;7755;52.208;6.964;2024-03-25T17:41:43;99884.06;;;10.36;57.50
15308;BME280;7755;52.208;6.964;2024-03-25T17:46:20;99877.94;;;10.19;58.73
15308;BME280;7755;52.208;6.964;2024-03-25T17:50:57;99870.47;;;10.04;59.78
15308;BME280;7755;52.208;6.964;2024-03-25T17:55:32;99872.53;;;9.92;60.92
15308;BME280;7755;52.208;6.964;2024-03-25T18:00:08;99876.72;;;9.77;62.21
15308;BME280;7755;52.208;6.964;2024-03-25T18:04:45;99869.25;;;9.63;62.94
15308;BME280;7755;52.208;6.964;2024-03-25T18:09:21;99872.34;;;9.49;64.53
15308;BME280;7755;52.208;6.964;2024-03-25T18:13:57;99865.41;;;9.37;65.89
15308;BME280;7755;52.208;6.964;2024-03-25T18:18:32;99869.31;;;9.24;67.70
15308;BME280;7755;52.208;6.964;2024-03-25T18:23:09;99857.75;;;9.12;69.18
15308;BME280;7755;52.208;6.964;2024-03-25T18:27:45;99855.50;;;9.03;70.32
15308;BME280;7755;52.208;6.964;2024-03-25T18:32:20;99851.59;;;8.94;71.39
15308;BME280;7755;52.208;6.964;2024-03-25T18:36:48;99853.34;;;8.84;71.98
15308;BME280;7755;52.208;6.964;2024-03-25T18:41:18;99846.94;;;8.73;72.64
15308;BME280;7755;52.208;6.964;2024-03-25T18:45:54;99850.34;;;8.63;73.97
15308;BME280;7755;52.208;6.964;2024-03-25T18:50:29;99843.94;;;8.53;75.52
15308;BME280;7755;52.208;6.964;2024-03-25T18:55:04;99839.09;;;8.38;76.73
15308;BME280;7755;52.208;6.964;2024-03-25T18:59:42;99851.97;;;8.31;77.67
15308;BME280;7755;52.208;6.964;2024-03-25T19:04:17;99829.34;;;8.20;78.60
15308;BME280;7755;52.208;6.964;2024-03-25T19:08:52;99826.28;;;8.16;79.62
15308;BME280;7755;52.208;6.964;2024-03-25T19:13:27;99827.44;;;8.04;80.07
15308;BME280;7755;52.208;6.964;2024-03-25T19:18:05;99823.25;;;7.96;80.71
15308;BME280;7755;52.208;6.964;2024-03-25T19:22:40;99826.94;;;7.90;81.26
15308;BME280;7755;52.208;6.964;2024-03-25T19:27:15;99818.97;;;7.83;81.40
15308;BME280;7755;52.208;6.964;2024-03-25T19:31:50;99818.03;;;7.78;81.74
15308;BME280;7755;52.208;6.964;2024-03-25T19:36:27;99819.03;;;7.72;82.25
15308;BME280;7755;52.208;6.964;2024-03-25T19:41:03;99815.19;;;7.68;82.73
15308;BME280;7755;52.208;6.964;2024-03-25T19:45:38;99810.47;;;7.63;83.10
15308;BME280;7755;52.208;6.964;2024-03-25T19:50:13;99807.13;;;7.56;83.38
15308;BME280;7755;52.208;6.964;2024-03-25T19:54:51;99799.72;;;7.51;83.78
15308;BME280;7755;52.208;6.964;2024-03-25T19:59:26;99800.72;;;7.45;84.31
15308;BME280;7755;52.208;6.964;2024-03-25T20:04:01;99803.22;;;7.35;84.93
15308;BME280;7755;52.208;6.964;2024-03-25T20:08:36;99806.16;;;7.33;84.91
15308;BME280;7755;52.208;6.964;2024-03-25T20:13:13;99806.88;;;7.29;85.48
15308;BME280;7755;52.208;6.964;2024-03-25T20:17:49;99811.97;;;7.25;85.29
15308;BME280;7755;52.208;6.964;2024-03-25T20:22:24;99806.19;;;7.22;85.81
15308;BME280;7755;52.208;6.964;2024-03-25T20:26:59;99810.22;;;7.19;85.78
15308;BME280;7755;52.208;6.964;2024-03-25T20:31:38;99795.28;;;7.17;85.98
15308;BME280;7755;52.208;6.964;2024-03-25T20:36:13;99801.50;;;7.17;86.06
15308;BME280;7755;52.208;6.964;2024-03-25T20:40:48;99805.53;;;7.15;86.74
15308;BME280;7755;52.208;6.964;2024-03-25T20:45:23;99793.53;;;7.10;86.69
15308;BME280;7755;52.208;6.964;2024-03-25T20:50:00;99799.19;;;7.09;87.21
15308;BME280;7755;52.208;6.964;2024-03-25T20:54:36;99800.25;;;7.08;87.31
15308;BME280;7755;52.208;6.964;2024-03-25T20:59:11;99788.06;;;7.05;87.51
15308;BME280;7755;52.208;6.964;2024-03-25T21:03:46;99791.22;;;7.02;88.23
15308;BME280;7755;52.208;6.964;2024-03-25T21:08:23;99785.47;;;6.99;87.93
15308;BME280;7755;52.208;6.964;2024-03-25T21:12:59;99774.31;;;6.95;87.88
15308;BME280;7755;52.208;6.964;2024-03-25T21:17:34;99772.69;;;6.94;88.20
15308;BME280;7755;52.208;6.964;2024-03-25T21:22:09;99774.88;;;6.97;88.62
15308;BME280;7755;52.208;6.964;2024-03-25T21:26:46;99765.16;;;6.96;88.12
15308;BME280;7755;52.208;6.964;2024-03-25T21:31:22;99762.38;;;6.91;87.90
15308;BME280;7755;52.208;6.964;2024-03-25T21:35:57;99753.66;;;6.89;87.84
15308;BME280;7755;52.208;6.964;2024-03-25T21:40:32;99750.63;;;6.86;88.01
15308;BME280;7755;52.208;6.964;2024-03-25T21:45:10;99749.22;;;6.83;88.31
15308;BME280;7755;52.208;6.964;2024-03-25T21:49:45;99734.06;;;6.82;87.95
15308;BME280;7755;52.208;6.964;2024-03-25T21:54:20;99729.84;;;6.86;88.12
15308;BME280;7755;52.208;6.964;2024-03-25T21:58:55;99733.81;;;6.83;87.56
15308;BME280;7755;52.208;6.964;2024-03-25T22:03:32;99733.50;;;6.80;87.22
15308;BME280;7755;52.208;6.964;2024-03-25T22:08:08;99724.00;;;6.77;86.51
15308;BME280;7755;52.208;6.964;2024-03-25T22:12:43;99728.34;;;6.78;86.82
15308;BME280;7755;52.208;6.964;2024-03-25T22:17:18;99726.09;;;6.75;86.49
15308;BME280;7755;52.208;6.964;2024-03-25T22:21:55;99722.56;;;6.75;86.82
15308;BME280;7755;52.208;6.964;2024-03-25T22:26:31;99712.72;;;6.69;85.62
15308;BME280;7755;52.208;6.964;2024-03-25T22:31:06;99710.84;;;6.69;86.60
15308;BME280;7755;52.208;6.964;2024-03-25T22:35:41;99711.09;;;6.68;86.72
15308;BME280;7755;52.208;6.964;2024-03-25T22:40:18;99698.53;;;6.62;87.34
15308;BME280;7755;52.208;6.964;2024-03-25T22:44:47;99689.75;;;6.54;87.85
15308;BME280;7755;52.208;6.964;2024-03-25T22:49:22;99685.31;;;6.48;88.21
15308;BME280;7755;52.208;6.964;2024-03-25T22:53:57;99677.59;;;6.40;88.20
15308;BME280;7755;52.208;6.964;2024-03-25T22:58:35;99672.06;;;6.35;89.21
15308;BME280;7755;52.208;6.964;2024-03-25T23:03:04;99672.81;;;6.31;89.58
15308;BME280;7755;52.208;6.964;2024-03-25T23:07:39;99668.13;;;6.26;90.33
15308;BME280;7755;52.208;6.964;2024-03-25T23:12:14;99666.72;;;6.23;90.79
15308;BME280;7755;52.208;6.964;2024-03-25T23:16:51;99655.81;;;6.18;90.81
15308;BME280;7755;52.208;6.964;2024-03-25T23:21:27;99653.56;;;6.15;91.05
15308;BME280;7755;52.208;6.964;2024-03-25T23:26:02;99646.66;;;6.08;91.43
15308;BME280;7755;52.208;6.964;2024-03-25T23:30:37;99644.34;;;5.99;92.04
15308;BME280;7755;52.208;6.964;2024-03-25T23:35:15;99655.25;;;5.93;92.59
15308;BME280;7755;52.208;6.964;2024-03-25T23:39:51;99639.97;;;5.87;92.78
15308;BME280;7755;52.208;6.964;2024-03-25T23:44:26;99644.91;;;5.78;93.44
15308;BME280;7755;52.208;6.964;2024-03-25T23:49:01;99633.31;;;5.78;94.09
15308;BME280;7755;52.208;6.964;2024-03-25T23:53:38;99629.91;;;5.70;93.87
15308;BME280;7755;52.208;6.964;2024-03-25T23:58:14;99638.13;;;5.64;94.52
